Vilsandi, Estonia

11:05 PM EET on December 18, 2014 (GMT +0200)
Kuressaare | Change Station
CLOSE
Current Station
Airport
Location: KURESSAARE,
Elevation: 13 ft
Nearby Weather Stations

Elev 13 ft 58.23 °N, 22.51 °E | Updated 15 minutes ago

Rain
Rain
39 °F
Feels Like 30 °F
N
16
Wind Variable Wind from SSW

Today
High -- | Low -- °F
--% Chance of Precip.
Yesterday
High -- | Low -- °F
Precip. -- in
9:18 AM 3:40 PM
Waning Crescent, 12% visible
Pressure 29.36 in
Visibility 3.1 miles
Clouds Overcast 400 ft
Windchill 30 °F
Dew Point 39 °F
Humidity 100%
Rainfall 0.00 in
Snow Depth Not available.
UV 0 out of 12
Pollen Not available.
Air Quality Not available.
Flu Activity Not available.
METAR EEKE 182050Z AUTO 20014KT 5000NDV RA OVC004 04/04 Q0994

More Conditions Fewer Conditions

Pressure 29.36 in
Visibility 3.1 miles
Clouds Overcast 400 ft
Windchill 30 °F
Dew Point 39 °F
Humidity 100%
Rainfall 0.00 in
Snow Depth Not available.
UV 0 out of 12
Pollen Not available.
Air Quality Not available.
Flu Activity Not available.
METAR EEKE 182050Z AUTO 20014KT 5000NDV RA OVC004 04/04 Q0994

More Conditions Fewer Conditions

10-Day Weather Forecast

Almanac

Astronomy

Dec. 18, 2014 Rise Set
Actual Time
Civil Twilight
Nautical Twilight
Astronomical Twilight
Moon
Length of Visible Light
Length of Day
Tomorrow will be .
, % of the Moon is Illuminated

Today's Extremes

Country Highs Country Lows

Community

WunderPhotos

Upload Photos

1,778,997 photos uploaded!

WunderBlogs® & News

Nearby

Air Quality

  Air Quality AQ Index Pollutant
Not available.

Snow Depth

Station Depth Elevation

Earthquake Activity

City Distance Mag. Time & Date
Minimum magnitude displayed is 2.5.

Coastal Water Temperatures

Place Temperature

Nearby Weather Stations